Time;durP1;ratioP1;P1;durP2;ratioP2;P2;SDS_P1;SDS_P2;PMS_P1;PMS_P2;Temp;Humidity;BMP_temperature;BMP_pressure;BME280_temperature;BME280_humidity;BME280_pressure;Samples;Min_cycle;Max_cycle;Signal;HPM_P1;HPM_P2
2021/08/31 00:00:32;;;;;;;27.98;12.25;;;14.80;99.90;;;;;;5010314;28;20440;-82
2021/08/31 00:02:58;;;;;;;26.70;12.20;;;14.80;99.90;;;;;;5012373;28;20044;-82
2021/08/31 00:05:24;;;;;;;28.42;12.18;;;14.80;99.90;;;;;;5031781;28;20063;-84
2021/08/31 00:07:49;;;;;;;26.50;13.25;;;14.70;99.90;;;;;;5016028;28;20037;-83
2021/08/31 00:10:15;;;;;;;30.90;13.25;;;14.80;99.90;;;;;;5011754;28;20419;-82
2021/08/31 00:12:41;;;;;;;29.50;13.18;;;14.70;99.90;;;;;;5031664;28;20029;-81
2021/08/31 00:15:08;;;;;;;34.10;12.43;;;14.70;99.90;;;;;;5050106;28;20052;-82
2021/08/31 00:17:33;;;;;;;24.08;12.73;;;14.70;99.90;;;;;;5015220;28;20041;-84
2021/08/31 00:19:59;;;;;;;31.00;13.18;;;14.60;99.90;;;;;;5027271;28;20044;-83
2021/08/31 00:22:25;;;;;;;32.70;12.20;;;14.60;99.90;;;;;;5011310;28;20044;-84
2021/08/31 00:24:51;;;;;;;26.27;12.60;;;14.60;99.90;;;;;;5015709;28;20029;-81
2021/08/31 00:27:17;;;;;;;30.77;12.38;;;14.60;99.90;;;;;;5032664;28;20037;-84
2021/08/31 00:29:42;;;;;;;29.05;12.43;;;14.60;99.90;;;;;;5013280;28;20513;-84
2021/08/31 00:32:09;;;;;;;31.48;12.50;;;14.70;99.90;;;;;;5028049;28;20041;-85
2021/08/31 00:34:34;;;;;;;32.83;12.07;;;14.60;99.90;;;;;;5032785;28;20045;-81
2021/08/31 00:37:00;;;;;;;32.78;12.30;;;14.50;99.90;;;;;;5016150;28;20119;-84
2021/08/31 00:39:26;;;;;;;32.22;12.40;;;14.60;99.90;;;;;;5016379;28;20514;-82
2021/08/31 00:41:53;;;;;;;33.90;12.00;;;14.60;99.90;;;;;;5029998;28;20518;-86
2021/08/31 00:44:24;;;;;;;30.10;12.18;;;14.70;99.90;;;;;;5020857;28;20064;-85
2021/08/31 00:46:57;;;;;;;29.75;11.50;;;14.60;99.90;;;;;;5031956;28;20037;-80
2021/08/31 00:49:24;;;;;;;25.40;10.90;;;14.60;99.90;;;;;;5025497;28;20041;-84
2021/08/31 00:51:51;;;;;;;28.08;10.60;;;14.60;99.90;;;;;;4998133;28;20033;-86
2021/08/31 00:54:18;;;;;;;32.15;11.30;;;14.70;99.90;;;;;;5033095;28;20033;-84
2021/08/31 00:56:51;;;;;;;28.70;10.88;;;14.70;99.90;;;;;;5031226;28;20037;-85
2021/08/31 00:59:18;;;;;;;31.27;10.18;;;14.70;99.90;;;;;;5017915;28;20047;-84
2021/08/31 01:01:46;;;;;;;35.47;10.88;;;14.70;99.90;;;;;;5030128;28;20124;-86
2021/08/31 01:04:12;;;;;;;28.92;10.35;;;14.70;99.90;;;;;;5031890;28;20045;-86
2021/08/31 01:06:38;;;;;;;23.85;9.98;;;14.70;99.90;;;;;;5016581;28;20120;-83
2021/08/31 01:09:04;;;;;;;27.35;9.95;;;14.70;99.90;;;;;;5032004;28;20045;-80
2021/08/31 01:11:30;;;;;;;31.25;9.50;;;14.80;99.90;;;;;;5013928;28;20033;-84
2021/08/31 01:13:56;;;;;;;29.52;9.38;;;14.80;99.90;;;;;;5009285;28;20356;-79
2021/08/31 01:16:22;;;;;;;30.42;9.75;;;14.80;99.90;;;;;;5010460;28;20499;-87
2021/08/31 01:18:47;;;;;;;30.60;9.52;;;14.80;99.90;;;;;;5024309;28;20052;-80
2021/08/31 01:21:13;;;;;;;30.83;8.65;;;14.80;99.90;;;;;;5033336;28;20358;-84
2021/08/31 01:23:39;;;;;;;29.38;8.80;;;14.90;99.90;;;;;;5050451;28;20040;-87
2021/08/31 01:26:04;;;;;;;34.63;9.32;;;14.90;99.90;;;;;;5030936;28;20048;-81
2021/08/31 01:28:35;;;;;;;28.23;9.52;;;14.90;99.90;;;;;;5032222;28;20028;-85
2021/08/31 01:31:02;;;;;;;31.20;10.07;;;14.90;99.90;;;;;;5017270;28;20037;-85
2021/08/31 01:33:31;;;;;;;31.67;9.82;;;14.90;99.90;;;;;;5030161;28;20036;-79
2021/08/31 01:35:57;;;;;;;27.63;8.93;;;14.90;99.90;;;;;;5014206;28;20045;-85
2021/08/31 01:38:24;;;;;;;28.00;8.77;;;14.90;99.90;;;;;;5018218;28;20069;-81
2021/08/31 01:40:50;;;;;;;27.40;8.73;;;15.00;99.90;;;;;;5054944;28;20409;-83
2021/08/31 01:43:26;;;;;;;23.10;8.93;;;15.00;99.90;;;;;;5052788;28;20044;-82
2021/08/31 01:45:52;;;;;;;27.27;9.32;;;15.00;99.90;;;;;;5012180;28;20045;-80
2021/08/31 01:48:18;;;;;;;27.80;10.15;;;15.10;99.90;;;;;;5034110;28;20037;-84
2021/08/31 01:50:44;;;;;;;29.35;10.07;;;15.10;99.90;;;;;;5051920;28;20041;-80
2021/08/31 01:53:10;;;;;;;35.17;9.98;;;15.10;99.90;;;;;;5035309;28;20039;-82
2021/08/31 01:55:36;;;;;;;32.95;9.63;;;15.10;99.90;;;;;;5028318;28;20087;-79
2021/08/31 01:58:02;;;;;;;28.65;9.25;;;15.20;99.90;;;;;;5015446;28;20037;-82
2021/08/31 02:00:28;;;;;;;30.40;9.52;;;15.10;99.90;;;;;;5048685;28;20049;-84
2021/08/31 02:02:54;;;;;;;24.35;9.13;;;15.10;99.90;;;;;;5022082;28;20041;-83
2021/08/31 02:05:20;;;;;;;26.35;9.20;;;15.10;99.90;;;;;;5048877;28;20044;-84
2021/08/31 02:07:45;;;;;;;35.47;9.88;;;15.10;99.90;;;;;;5030523;28;20048;-82
2021/08/31 02:10:11;;;;;;;26.20;8.68;;;15.10;99.90;;;;;;5029071;28;20060;-83
2021/08/31 02:12:37;;;;;;;22.77;9.02;;;15.20;99.90;;;;;;5029447;28;20037;-85
2021/08/31 02:15:04;;;;;;;26.25;8.52;;;15.30;99.90;;;;;;5026552;28;20052;-81
2021/08/31 02:17:30;;;;;;;29.50;8.98;;;15.30;99.90;;;;;;5031204;28;20518;-80
2021/08/31 02:19:56;;;;;;;26.95;9.30;;;15.30;99.90;;;;;;5015201;28;20040;-82
2021/08/31 02:22:22;;;;;;;25.10;8.82;;;15.30;99.90;;;;;;5026469;28;20119;-83
2021/08/31 02:24:47;;;;;;;32.00;9.82;;;15.30;99.90;;;;;;5016040;28;20079;-83
2021/08/31 02:27:13;;;;;;;36.17;9.63;;;15.30;99.90;;;;;;5014567;28;20723;-86
2021/08/31 02:29:39;;;;;;;26.15;9.50;;;15.30;99.90;;;;;;5045780;28;20045;-84
2021/08/31 02:32:05;;;;;;;30.33;9.40;;;15.30;99.90;;;;;;5029863;28;20131;-85
2021/08/31 02:34:32;;;;;;;29.77;9.82;;;15.30;99.90;;;;;;5045643;28;20140;-83
2021/08/31 02:36:57;;;;;;;37.30;10.98;;;15.30;99.90;;;;;;5010640;28;20470;-82
2021/08/31 02:39:23;;;;;;;30.55;10.23;;;15.40;99.90;;;;;;5031223;28;20086;-83
2021/08/31 02:41:49;;;;;;;27.20;10.65;;;15.30;99.90;;;;;;5030313;28;20492;-82
2021/08/31 02:44:15;;;;;;;31.60;11.30;;;15.30;99.90;;;;;;5032449;28;20045;-87
2021/08/31 02:46:41;;;;;;;33.97;12.18;;;15.30;99.90;;;;;;5028707;28;20049;-83
2021/08/31 02:49:06;;;;;;;26.83;10.98;;;15.30;99.90;;;;;;5047149;28;20040;-83
2021/08/31 02:51:32;;;;;;;29.63;11.57;;;15.30;99.90;;;;;;5030110;28;20048;-80
2021/08/31 02:53:58;;;;;;;36.45;11.77;;;15.30;99.90;;;;;;5047618;28;20119;-85
2021/08/31 02:56:23;;;;;;;30.63;11.55;;;15.30;99.90;;;;;;5043599;28;20399;-84
2021/08/31 02:58:50;;;;;;;29.40;12.15;;;15.40;99.90;;;;;;5011562;28;20080;-81
2021/08/31 03:01:32;;;;;;;30.67;12.40;;;15.30;99.90;;;;;;5031289;28;20041;-87
2021/08/31 03:04:00;;;;;;;40.10;13.50;;;15.40;99.90;;;;;;5043477;28;20099;-83
2021/08/31 03:06:26;;;;;;;34.15;13.02;;;15.40;99.90;;;;;;5013962;28;20348;-84
2021/08/31 03:08:52;;;;;;;34.33;13.30;;;15.40;99.90;;;;;;5006845;28;20086;-84
2021/08/31 03:11:18;;;;;;;36.00;13.23;;;15.50;99.90;;;;;;5030570;28;20190;-84
2021/08/31 03:13:44;;;;;;;34.67;13.68;;;15.40;99.90;;;;;;5004690;28;20116;-82
2021/08/31 03:16:09;;;;;;;30.60;12.65;;;15.40;99.90;;;;;;5040243;28;20163;-85
2021/08/31 03:18:35;;;;;;;31.85;13.32;;;15.40;99.90;;;;;;5022348;28;20114;-82
2021/08/31 03:21:01;;;;;;;34.53;13.52;;;15.40;99.90;;;;;;5005023;28;20045;-85
2021/08/31 03:23:26;;;;;;;29.20;12.98;;;15.50;99.90;;;;;;5041913;28;20376;-84
2021/08/31 03:25:52;;;;;;;33.40;13.23;;;15.50;99.90;;;;;;5009016;28;20170;-82
2021/08/31 03:28:18;;;;;;;35.08;13.35;;;15.50;99.90;;;;;;5022885;28;20040;-85
2021/08/31 03:30:44;;;;;;;37.97;13.68;;;15.50;99.90;;;;;;5022273;28;20747;-85
2021/08/31 03:33:10;;;;;;;31.63;13.05;;;15.50;99.90;;;;;;5044652;28;20044;-88
2021/08/31 03:35:36;;;;;;;32.15;12.63;;;15.60;99.90;;;;;;5011668;28;20068;-81
2021/08/31 03:38:02;;;;;;;36.20;12.60;;;15.60;99.90;;;;;;5024534;28;20430;-84
2021/08/31 03:40:27;;;;;;;29.95;11.82;;;15.60;99.90;;;;;;5027839;28;20084;-86
2021/08/31 03:42:53;;;;;;;33.50;11.88;;;15.60;99.90;;;;;;5024072;28;20143;-80
2021/08/31 03:45:18;;;;;;;29.55;11.93;;;15.60;99.90;;;;;;5021654;28;20103;-83
2021/08/31 03:47:44;;;;;;;25.83;11.10;;;15.70;99.90;;;;;;5025610;28;20044;-85
2021/08/31 03:50:11;;;;;;;36.05;12.60;;;15.70;99.90;;;;;;5040212;28;21244;-81
2021/08/31 03:52:36;;;;;;;33.72;12.15;;;15.70;99.90;;;;;;5010146;28;20071;-86
2021/08/31 03:55:03;;;;;;;28.55;11.15;;;15.70;99.90;;;;;;5022877;28;20131;-85
2021/08/31 03:57:29;;;;;;;35.72;12.25;;;15.80;99.90;;;;;;5042451;28;20041;-86
2021/08/31 03:59:55;;;;;;;32.33;11.52;;;15.80;99.90;;;;;;5025190;28;20152;-85
2021/08/31 04:02:22;;;;;;;37.00;12.00;;;15.80;99.90;;;;;;5043431;28;20124;-79
2021/08/31 04:04:50;;;;;;;36.75;11.38;;;15.80;99.90;;;;;;5024707;28;20033;-82
2021/08/31 04:07:17;;;;;;;28.63;11.75;;;15.80;99.90;;;;;;5019847;28;20388;-84
2021/08/31 04:09:43;;;;;;;33.22;12.98;;;15.80;99.90;;;;;;5024146;28;21012;-85
2021/08/31 04:12:10;;;;;;;29.65;11.82;;;15.80;99.90;;;;;;5020876;28;20120;-80
2021/08/31 04:14:36;;;;;;;22.27;11.05;;;15.80;99.90;;;;;;5029951;28;20093;-83
2021/08/31 04:17:02;;;;;;;26.85;11.25;;;15.80;99.90;;;;;;5027754;28;20081;-82
2021/08/31 04:19:28;;;;;;;32.20;12.32;;;15.80;99.90;;;;;;4998501;28;20060;-84
2021/08/31 04:21:53;;;;;;;30.10;11.48;;;15.80;99.90;;;;;;5022364;28;20067;-80
2021/08/31 04:24:19;;;;;;;24.55;11.45;;;15.80;99.90;;;;;;5016111;28;20056;-83
2021/08/31 04:26:45;;;;;;;31.80;12.35;;;15.90;99.90;;;;;;5028921;28;20040;-88
2021/08/31 04:29:11;;;;;;;25.50;11.73;;;15.80;99.90;;;;;;5023247;28;20124;-82
2021/08/31 04:31:38;;;;;;;29.85;11.93;;;15.80;99.90;;;;;;5026624;28;20036;-84
2021/08/31 04:34:04;;;;;;;25.42;11.02;;;15.80;99.90;;;;;;5008554;28;20045;-83
2021/08/31 04:36:30;;;;;;;26.02;10.98;;;15.90;99.90;;;;;;5028159;28;20122;-82
2021/08/31 04:38:55;;;;;;;27.40;12.23;;;15.80;99.90;;;;;;5029644;28;20468;-82
2021/08/31 04:41:21;;;;;;;32.53;11.68;;;15.80;99.90;;;;;;5026273;28;20121;-84
2021/08/31 04:43:47;;;;;;;27.95;11.63;;;15.80;99.90;;;;;;5024563;28;20037;-84
2021/08/31 04:46:12;;;;;;;33.15;12.30;;;15.80;99.90;;;;;;5020332;28;20135;-84
2021/08/31 04:48:39;;;;;;;29.00;11.60;;;15.80;99.90;;;;;;5024797;28;20048;-85
2021/08/31 04:51:05;;;;;;;31.85;11.75;;;15.80;99.90;;;;;;5010775;28;20151;-84
2021/08/31 04:53:31;;;;;;;27.40;11.98;;;15.80;99.90;;;;;;5003726;28;20041;-85
2021/08/31 04:55:56;;;;;;;24.50;11.73;;;15.70;99.90;;;;;;5028381;28;20093;-86
2021/08/31 04:58:22;;;;;;;37.92;12.68;;;15.70;99.90;;;;;;5028721;28;20203;-85
2021/08/31 05:00:48;;;;;;;28.83;12.52;;;15.80;99.90;;;;;;5010286;28;20365;-86
2021/08/31 05:03:14;;;;;;;33.90;12.10;;;15.50;99.90;;;;;;5013280;28;20464;-86
2021/08/31 05:05:41;;;;;;;29.35;12.07;;;15.60;99.90;;;;;;5028374;28;20059;-81
2021/08/31 05:08:07;;;;;;;23.30;11.45;;;15.60;99.90;;;;;;5030766;28;20064;-82
2021/08/31 05:10:32;;;;;;;25.20;11.18;;;15.50;99.90;;;;;;5030099;28;20060;-83
2021/08/31 05:12:58;;;;;;;26.48;10.95;;;15.50;99.90;;;;;;5027723;28;20041;-80
2021/08/31 05:15:24;;;;;;;33.38;11.60;;;15.40;99.90;;;;;;5026611;28;20054;-78
2021/08/31 05:17:49;;;;;;;29.35;11.15;;;15.50;99.90;;;;;;5017867;28;20052;-79
2021/08/31 05:20:17;;;;;;;30.27;10.50;;;15.40;99.90;;;;;;5003665;28;20056;-82
2021/08/31 05:22:43;;;;;;;26.88;10.38;;;15.40;99.90;;;;;;5021255;28;20275;-80
2021/08/31 05:25:08;;;;;;;26.88;10.15;;;15.30;99.90;;;;;;5024892;28;22066;-83
2021/08/31 05:27:34;;;;;;;26.60;10.20;;;15.40;99.90;;;;;;5016835;28;20038;-82
2021/08/31 05:30:00;;;;;;;28.95;10.38;;;15.40;99.90;;;;;;5006308;28;20418;-80
2021/08/31 05:32:26;;;;;;;25.77;10.02;;;15.40;99.90;;;;;;5005904;28;20377;-82
2021/08/31 05:34:51;;;;;;;29.25;9.98;;;15.40;99.90;;;;;;5026614;28;20077;-83
2021/08/31 05:37:17;;;;;;;29.30;9.13;;;15.40;99.90;;;;;;5006575;28;20046;-80
2021/08/31 05:39:43;;;;;;;24.65;8.95;;;15.50;99.90;;;;;;5004838;28;20103;-81
2021/08/31 05:42:10;;;;;;;23.38;9.02;;;15.50;99.90;;;;;;5019901;28;20054;-81
2021/08/31 05:44:38;;;;;;;31.70;9.23;;;15.50;99.90;;;;;;5018285;28;20041;-81
2021/08/31 05:47:05;;;;;;;25.40;8.40;;;15.50;99.90;;;;;;5020520;28;20425;-77
2021/08/31 05:49:35;;;;;;;21.60;8.23;;;15.60;99.90;;;;;;5001435;28;20042;-76
2021/08/31 05:52:01;;;;;;;23.85;8.88;;;15.60;99.90;;;;;;5019474;28;20519;-80
2021/08/31 05:54:27;;;;;;;21.52;8.32;;;15.70;99.90;;;;;;5012729;28;20432;-74
2021/08/31 05:56:53;;;;;;;23.55;8.30;;;15.60;99.90;;;;;;5014211;28;20465;-80
2021/08/31 05:59:19;;;;;;;23.92;8.77;;;15.70;99.90;;;;;;5001800;28;20041;-76
2021/08/31 06:01:46;;;;;;;19.25;7.82;;;15.70;99.90;;;;;;5002016;28;20049;-76
2021/08/31 06:04:12;;;;;;;17.92;8.35;;;15.80;99.90;;;;;;5022945;28;20048;-81
2021/08/31 06:06:38;;;;;;;20.20;7.78;;;15.90;99.90;;;;;;5004316;28;20049;-77
2021/08/31 06:09:04;;;;;;;25.63;8.82;;;15.90;99.90;;;;;;5022904;28;20426;-78
2021/08/31 06:11:32;;;;;;;21.65;7.93;;;15.90;99.90;;;;;;5040954;28;20041;-80
2021/08/31 06:13:58;;;;;;;19.02;8.43;;;16.00;99.90;;;;;;5006753;28;20444;-81
2021/08/31 06:16:24;;;;;;;18.98;8.13;;;16.00;99.90;;;;;;5023200;28;20049;-80
2021/08/31 06:18:49;;;;;;;22.50;8.48;;;16.00;99.90;;;;;;5020390;28;20599;-78
2021/08/31 06:21:15;;;;;;;24.08;8.80;;;15.90;99.90;;;;;;5022757;28;20096;-80
2021/08/31 06:23:40;;;;;;;19.95;7.78;;;16.10;99.90;;;;;;5020662;28;20107;-77
2021/08/31 06:26:06;;;;;;;27.35;9.55;;;16.10;99.90;;;;;;5018581;28;20048;-79
2021/08/31 06:28:33;;;;;;;20.85;8.18;;;16.20;99.90;;;;;;5005738;28;20038;-78
2021/08/31 06:30:58;;;;;;;23.13;9.35;;;16.30;99.90;;;;;;5022506;28;20053;-82
2021/08/31 06:33:24;;;;;;;23.30;9.48;;;16.40;99.90;;;;;;5020723;28;20096;-78
2021/08/31 06:35:50;;;;;;;22.90;8.93;;;16.40;99.90;;;;;;5031339;28;20103;-74
2021/08/31 06:38:16;;;;;;;25.10;8.75;;;16.50;99.90;;;;;;5021118;28;20351;-80
2021/08/31 06:40:41;;;;;;;27.20;9.20;;;16.60;99.90;;;;;;5018062;28;20107;-77
2021/08/31 06:43:07;;;;;;;21.42;9.02;;;16.70;99.90;;;;;;5006309;28;20486;-80
2021/08/31 06:45:33;;;;;;;15.88;9.13;;;16.90;99.90;;;;;;5001502;28;20718;-81
2021/08/31 06:47:58;;;;;;;21.98;8.75;;;17.00;99.90;;;;;;5020851;28;20049;-77
2021/08/31 06:50:24;;;;;;;21.08;8.73;;;17.10;99.90;;;;;;5005061;28;20112;-76
2021/08/31 06:52:50;;;;;;;22.98;8.65;;;17.20;99.90;;;;;;5021476;28;20116;-75
2021/08/31 06:55:16;;;;;;;25.73;8.35;;;17.30;99.90;;;;;;5007699;28;20411;-80
2021/08/31 06:57:41;;;;;;;18.63;8.07;;;17.40;99.90;;;;;;5002391;28;20054;-78
2021/08/31 07:00:08;;;;;;;17.83;7.60;;;17.50;99.90;;;;;;5019209;28;20049;-77
2021/08/31 07:02:34;;;;;;;17.70;7.85;;;17.60;99.90;;;;;;5020890;28;20500;-79
2021/08/31 07:05:00;;;;;;;20.80;7.40;;;17.60;99.90;;;;;;5003695;28;20060;-78
2021/08/31 07:07:26;;;;;;;18.30;7.32;;;17.70;99.90;;;;;;5020266;28;20085;-78
2021/08/31 07:09:52;;;;;;;17.73;6.65;;;17.80;99.90;;;;;;5021608;28;20413;-78
2021/08/31 07:12:18;;;;;;;15.05;6.85;;;17.80;99.90;;;;;;5016410;28;20045;-80
2021/08/31 07:14:43;;;;;;;21.38;7.00;;;17.90;99.90;;;;;;5004288;28;20408;-79
2021/08/31 07:17:09;;;;;;;14.93;6.32;;;18.00;99.90;;;;;;5017801;28;20048;-81
2021/08/31 07:19:35;;;;;;;16.65;5.13;;;18.10;99.90;;;;;;5002414;28;20045;-81
2021/08/31 07:22:01;;;;;;;14.75;5.82;;;18.00;99.90;;;;;;5005427;28;20411;-78
2021/08/31 07:24:26;;;;;;;15.88;5.57;;;18.00;99.90;;;;;;5025750;28;20037;-77
2021/08/31 07:26:52;;;;;;;18.42;6.47;;;18.10;99.90;;;;;;5027195;28;20076;-77
2021/08/31 07:29:18;;;;;;;14.57;5.63;;;18.00;99.90;;;;;;5024660;28;20064;-76
2021/08/31 07:31:43;;;;;;;19.13;6.75;;;17.90;99.90;;;;;;5024720;28;20464;-77
2021/08/31 07:34:09;;;;;;;16.45;5.88;;;17.80;99.90;;;;;;5008048;28;20140;-78
2021/08/31 07:36:35;;;;;;;19.60;5.53;;;17.80;99.90;;;;;;5007965;28;20053;-78
2021/08/31 07:39:01;;;;;;;16.42;5.57;;;17.80;99.90;;;;;;5007581;28;20450;-79
2021/08/31 07:41:29;;;;;;;20.08;5.47;;;17.80;99.90;;;;;;5010953;28;20671;-81
2021/08/31 07:43:55;;;;;;;18.65;5.18;;;17.90;99.90;;;;;;5023434;28;20063;-81
2021/08/31 07:46:21;;;;;;;18.30;4.90;;;17.90;99.90;;;;;;5005754;28;20052;-80
2021/08/31 07:48:47;;;;;;;17.00;4.97;;;18.00;99.90;;;;;;5025676;28;20041;-81
2021/08/31 07:51:13;;;;;;;16.77;5.35;;;18.00;99.90;;;;;;5009961;28;20393;-80
2021/08/31 07:53:48;;;;;;;24.02;5.47;;;18.00;99.90;;;;;;5024333;28;20053;-81
2021/08/31 07:56:14;;;;;;;20.88;5.20;;;18.10;99.90;;;;;;5023729;28;20041;-85
2021/08/31 07:58:40;;;;;;;21.65;5.75;;;18.20;99.90;;;;;;5008294;28;20118;-78
2021/08/31 08:01:05;;;;;;;25.10;5.47;;;18.10;99.90;;;;;;5008450;28;20480;-77
2021/08/31 08:03:31;;;;;;;16.75;5.22;;;18.00;99.90;;;;;;5020457;28;20381;-79
2021/08/31 08:05:56;;;;;;;21.08;5.38;;;18.10;99.90;;;;;;5009228;28;20169;-78
2021/08/31 08:08:22;;;;;;;20.25;5.68;;;18.10;99.90;;;;;;5021047;28;20081;-79
2021/08/31 08:10:48;;;;;;;19.65;5.57;;;18.10;99.90;;;;;;5024256;28;20064;-82
2021/08/31 08:13:13;;;;;;;19.73;5.15;;;18.10;99.90;;;;;;5010678;28;20053;-78
2021/08/31 08:15:39;;;;;;;18.50;5.47;;;18.00;99.90;;;;;;5004486;28;20161;-78
2021/08/31 08:18:05;;;;;;;17.45;5.40;;;17.90;99.90;;;;;;5027413;28;20037;-77
2021/08/31 08:20:31;;;;;;;16.70;5.10;;;17.90;99.90;;;;;;5022224;28;20172;-77
2021/08/31 08:22:56;;;;;;;17.88;4.90;;;18.00;99.90;;;;;;5025365;28;20369;-77
2021/08/31 08:25:22;;;;;;;21.20;5.15;;;18.10;99.90;;;;;;5014012;28;20049;-78
2021/08/31 08:27:48;;;;;;;24.45;5.43;;;18.30;99.90;;;;;;5025631;28;20499;-78
2021/08/31 08:30:14;;;;;;;15.90;5.22;;;18.50;99.90;;;;;;5010520;28;20057;-78
2021/08/31 08:32:40;;;;;;;17.38;5.45;;;18.40;99.90;;;;;;5027426;28;20045;-79
2021/08/31 08:35:09;;;;;;;20.08;6.10;;;18.40;99.90;;;;;;5025498;28;20160;-80
2021/08/31 08:37:35;;;;;;;20.92;5.20;;;18.30;99.90;;;;;;5012829;28;20048;-78
2021/08/31 08:40:01;;;;;;;22.52;4.97;;;18.20;99.90;;;;;;5024093;28;20057;-76
2021/08/31 08:42:26;;;;;;;20.58;5.20;;;18.20;99.90;;;;;;5016598;28;20523;-77
2021/08/31 08:44:52;;;;;;;19.02;5.07;;;18.00;99.90;;;;;;5024718;28;20148;-78
2021/08/31 08:47:18;;;;;;;17.17;4.93;;;18.10;99.90;;;;;;5039538;28;20044;-77
2021/08/31 08:49:45;;;;;;;20.13;4.90;;;18.10;99.90;;;;;;5027071;28;20041;-78
2021/08/31 08:52:11;;;;;;;20.27;5.38;;;18.20;99.90;;;;;;5011550;28;20518;-79
2021/08/31 08:54:37;;;;;;;18.27;5.07;;;18.30;99.90;;;;;;5022803;28;20829;-79
2021/08/31 08:57:03;;;;;;;19.98;5.13;;;18.40;99.90;;;;;;5026739;28;20170;-80
2021/08/31 08:59:29;;;;;;;29.27;6.00;;;18.40;99.90;;;;;;5025006;28;20041;-79
2021/08/31 09:01:56;;;;;;;17.13;4.72;;;18.40;99.90;;;;;;5007267;28;20053;-80
2021/08/31 09:04:46;;;;;;;21.02;4.72;;;18.50;99.90;;;;;;5014053;28;20052;-79
2021/08/31 09:07:25;;;;;;;19.77;5.32;;;18.60;99.90;;;;;;5009567;28;20050;-77
2021/08/31 09:10:11;;;;;;;15.02;4.72;;;18.60;99.90;;;;;;5020210;28;20393;-80
2021/08/31 09:12:37;;;;;;;;;;;18.60;99.90;;;;;;5024880;28;20053;-77
2021/08/31 09:15:26;;;;;;;18.63;4.07;;;18.70;99.90;;;;;;5009382;28;19932;-77
2021/08/31 09:18:21;;;;;;;17.58;5.00;;;18.50;99.90;;;;;;5023912;28;20048;-81
2021/08/31 09:20:53;;;;;;;15.77;4.53;;;18.50;99.90;;;;;;5023463;28;20053;-78
2021/08/31 09:23:26;;;;;;;16.33;4.40;;;18.50;99.90;;;;;;5026931;28;20048;-80
2021/08/31 09:26:04;;;;;;;17.02;5.00;;;18.50;99.90;;;;;;5026746;28;20083;-78
2021/08/31 09:28:33;;;;;;;19.92;5.05;;;18.40;99.90;;;;;;5023414;28;20048;-79
2021/08/31 09:31:10;;;;;;;20.35;4.63;;;18.40;99.90;;;;;;5027288;28;20085;-79
2021/08/31 09:33:37;;;;;;;20.15;5.43;;;18.50;99.90;;;;;;5022683;28;20045;-79
2021/08/31 09:36:10;;;;;;;15.38;4.10;;;18.50;99.90;;;;;;5025431;28;20344;-79
2021/08/31 09:38:40;;;;;;;16.88;4.28;;;18.70;99.90;;;;;;5021979;28;20060;-80
2021/08/31 09:41:06;;;;;;;23.80;5.10;;;18.80;99.90;;;;;;5023951;28;20083;-80
2021/08/31 09:43:32;;;;;;;16.60;4.82;;;18.80;99.90;;;;;;5005258;28;20069;-79
2021/08/31 09:46:03;;;;;;;16.48;4.47;;;19.00;99.90;;;;;;5026226;28;20057;-82
2021/08/31 09:48:29;;;;;;;13.43;4.43;;;19.10;99.90;;;;;;5040846;28;20357;-80
2021/08/31 09:50:58;;;;;;;18.05;4.65;;;19.10;99.90;;;;;;5024144;28;20117;-80
2021/08/31 09:53:24;;;;;;;16.27;4.63;;;19.20;99.90;;;;;;5022854;28;20500;-78
2021/08/31 09:56:08;;;;;;;15.43;4.43;;;19.30;99.90;;;;;;5023976;28;20053;-78
2021/08/31 09:58:39;;;;;;;20.00;4.55;;;19.30;99.90;;;;;;5023793;28;20544;-81
2021/08/31 10:01:05;;;;;;;19.90;4.28;;;19.50;99.90;;;;;;5004390;28;20087;-80
2021/08/31 10:03:31;;;;;;;19.60;4.88;;;19.40;99.90;;;;;;5021648;28;20118;-80
2021/08/31 10:06:00;;;;;;;23.15;4.75;;;19.50;99.90;;;;;;5029340;28;20091;-80
2021/08/31 10:08:31;;;;;;;19.25;5.18;;;19.50;99.90;;;;;;5012198;28;20126;-78
2021/08/31 10:11:01;;;;;;;21.77;5.10;;;19.50;99.90;;;;;;5048461;28;20179;-81
2021/08/31 10:13:27;;;;;;;21.98;4.93;;;19.40;99.90;;;;;;5001813;28;22487;-82
2021/08/31 10:15:58;;;;;;;20.38;5.45;;;19.50;99.90;;;;;;5030259;28;20067;-82
2021/08/31 10:18:28;;;;;;;19.35;4.50;;;19.40;99.90;;;;;;4996660;28;20053;-80
2021/08/31 10:21:07;;;;;;;13.38;4.53;;;19.30;99.90;;;;;;5025429;28;20104;-79
2021/08/31 10:23:38;;;;;;;19.08;4.57;;;19.20;99.90;;;;;;5027302;28;20057;-83
2021/08/31 10:26:22;;;;;;;25.42;5.45;;;19.10;99.90;;;;;;5039343;28;20131;-78
2021/08/31 10:28:49;;;;;;;13.37;4.50;;;19.20;99.90;;;;;;5026795;28;20058;-79
2021/08/31 10:31:46;;;;;;;20.00;4.97;;;19.40;99.90;;;;;;5028195;28;20453;-77
2021/08/31 10:34:40;;;;;;;12.90;4.13;;;19.50;99.90;;;;;;4942377;28;20057;-78
2021/08/31 10:37:12;;;;;;;13.00;4.33;;;19.80;99.90;;;;;;4960212;28;20481;-80
2021/08/31 10:39:46;;;;;;;17.23;4.65;;;19.70;99.90;;;;;;4961133;28;20302;-80
2021/08/31 10:42:31;;;;;;;15.98;4.82;;;19.50;99.90;;;;;;4937623;28;20058;-82
2021/08/31 10:44:58;;;;;;;17.65;4.80;;;19.30;99.90;;;;;;4946068;28;20047;-79
2021/08/31 10:47:38;;;;;;;14.30;4.35;;;19.20;99.90;;;;;;4965215;28;20038;-76
2021/08/31 10:50:05;;;;;;;18.80;4.50;;;19.20;99.90;;;;;;4936848;28;20057;-80
2021/08/31 10:52:33;;;;;;;20.77;5.28;;;19.20;99.90;;;;;;4929428;28;20055;-77
2021/08/31 10:54:59;;;;;;;17.02;5.30;;;19.20;99.90;;;;;;4929106;28;20043;-82
2021/08/31 10:57:37;;;;;;;17.92;4.63;;;19.20;99.90;;;;;;4945980;28;20267;-80
2021/08/31 11:00:06;;;;;;;17.92;4.60;;;19.00;99.90;;;;;;4947919;28;20058;-81
2021/08/31 11:02:49;;;;;;;20.95;4.22;;;19.00;99.90;;;;;;4942424;28;20498;-80
2021/08/31 11:05:26;;;;;;;20.15;4.65;;;19.20;99.90;;;;;;4931739;28;20458;-76
2021/08/31 11:08:01;;;;;;;15.82;4.20;;;19.30;99.90;;;;;;4963783;28;20871;-80
2021/08/31 11:10:31;;;;;;;15.30;3.70;;;19.30;99.90;;;;;;4986250;28;20106;-79
2021/08/31 11:13:06;;;;;;;17.90;4.55;;;19.30;99.90;;;;;;5022723;28;20045;-79
2021/08/31 11:15:32;;;;;;;20.73;4.22;;;19.30;99.90;;;;;;5021086;28;20101;-78
2021/08/31 11:17:59;;;;;;;19.73;4.45;;;19.20;99.90;;;;;;5024289;28;20118;-79
2021/08/31 11:20:32;;;;;;;16.00;3.65;;;18.90;99.90;;;;;;5001954;28;20072;-78
2021/08/31 11:23:14;;;;;;;16.27;4.07;;;18.60;99.90;;;;;;5008142;28;20048;-78
2021/08/31 11:25:46;;;;;;;18.55;4.18;;;18.60;99.90;;;;;;5024801;28;20053;-79
2021/08/31 11:28:16;;;;;;;16.95;3.80;;;18.60;99.90;;;;;;5024066;28;20104;-80
2021/08/31 11:30:52;;;;;;;14.27;3.60;;;18.50;99.90;;;;;;5009128;28;20499;-81
2021/08/31 11:33:30;;;;;;;20.35;4.43;;;18.50;99.90;;;;;;5005768;28;21859;-80
2021/08/31 11:36:17;;;;;;;20.15;4.72;;;18.30;99.90;;;;;;5024369;28;20064;-79
2021/08/31 11:38:44;;;;;;;18.40;4.70;;;18.30;99.90;;;;;;5028445;28;20202;-78
2021/08/31 11:41:18;;;;;;;13.25;4.20;;;18.30;99.90;;;;;;5018380;28;20103;-79
2021/08/31 11:43:46;;;;;;;15.30;4.10;;;18.20;99.90;;;;;;5021492;28;20048;-79
2021/08/31 11:46:12;;;;;;;17.20;4.85;;;18.30;99.90;;;;;;5020605;28;20045;-80
2021/08/31 11:48:38;;;;;;;20.95;4.70;;;18.30;99.90;;;;;;5026294;28;20211;-79
2021/08/31 11:51:04;;;;;;;20.05;4.20;;;18.50;99.90;;;;;;5023802;28;20041;-78
2021/08/31 11:53:30;;;;;;;17.25;3.97;;;18.50;99.90;;;;;;5007109;28;20045;-78
2021/08/31 11:56:02;;;;;;;17.90;4.15;;;18.40;99.90;;;;;;5019096;28;20063;-77
2021/08/31 11:58:30;;;;;;;27.60;4.82;;;18.30;99.90;;;;;;5025497;28;20048;-77
2021/08/31 12:00:56;;;;;;;18.10;4.10;;;18.20;99.90;;;;;;5021965;28;20337;-77
2021/08/31 12:03:30;;;;;;;19.73;4.22;;;18.20;99.90;;;;;;5021426;28;20056;-76
2021/08/31 12:06:04;;;;;;;20.65;4.00;;;18.20;99.90;;;;;;5014825;28;20116;-78
2021/08/31 12:08:32;;;;;;;15.50;4.07;;;18.20;99.90;;;;;;5005564;28;20045;-79
2021/08/31 12:10:58;;;;;;;22.52;4.57;;;18.20;99.90;;;;;;5022089;28;20503;-78
2021/08/31 12:13:25;;;;;;;20.98;4.93;;;18.30;99.90;;;;;;5025347;28;20041;-79
2021/08/31 12:15:56;;;;;;;18.83;4.07;;;18.30;99.90;;;;;;4999193;28;22095;-77
2021/08/31 12:18:25;;;;;;;24.75;4.53;;;18.30;99.90;;;;;;5022475;28;20060;-78
2021/08/31 12:20:52;;;;;;;20.25;4.90;;;18.20;99.90;;;;;;5004118;28;20054;-78
2021/08/31 12:23:28;;;;;;;30.75;5.15;;;18.10;99.90;;;;;;5017162;28;20045;-78
2021/08/31 12:25:57;;;;;;;22.17;4.53;;;18.10;99.90;;;;;;5024517;28;20115;-80
2021/08/31 12:28:23;;;;;;;24.40;4.47;;;18.20;99.90;;;;;;5002907;28;20041;-80
2021/08/31 12:30:52;;;;;;;17.92;4.78;;;18.20;99.90;;;;;;5019376;28;20110;-79
2021/08/31 12:33:26;;;;;;;21.40;4.65;;;18.30;99.90;;;;;;5004341;28;20045;-80
2021/08/31 12:36:03;;;;;;;;;;;18.30;99.90;;;;;;5020101;28;20048;-80